sensor_id;sensor_type;location;lat;lon;timestamp;P1;durP1;ratioP1;P2;durP2;ratioP2
18146;SDS011;9199;48.832;9.182;2023-11-22T00:02:16;5.15;;;2.85;;
18146;SDS011;9199;48.832;9.182;2023-11-22T00:04:44;6.68;;;3.45;;
18146;SDS011;9199;48.832;9.182;2023-11-22T00:07:11;6.00;;;3.10;;
18146;SDS011;9199;48.832;9.182;2023-11-22T00:09:38;6.50;;;3.60;;
18146;SDS011;9199;48.832;9.182;2023-11-22T00:12:05;6.50;;;3.40;;
18146;SDS011;9199;48.832;9.182;2023-11-22T00:14:33;7.93;;;3.80;;
18146;SDS011;9199;48.832;9.182;2023-11-22T00:17:00;6.85;;;3.63;;
18146;SDS011;9199;48.832;9.182;2023-11-22T00:19:29;7.70;;;4.13;;
18146;SDS011;9199;48.832;9.182;2023-11-22T00:21:56;7.10;;;3.97;;
18146;SDS011;9199;48.832;9.182;2023-11-22T00:24:22;6.88;;;3.70;;
18146;SDS011;9199;48.832;9.182;2023-11-22T00:26:49;8.05;;;4.25;;
18146;SDS011;9199;48.832;9.182;2023-11-22T00:29:16;8.10;;;4.50;;
18146;SDS011;9199;48.832;9.182;2023-11-22T00:31:43;7.50;;;4.00;;
18146;SDS011;9199;48.832;9.182;2023-11-22T00:34:09;10.95;;;4.55;;
18146;SDS011;9199;48.832;9.182;2023-11-22T00:36:37;10.45;;;5.05;;
18146;SDS011;9199;48.832;9.182;2023-11-22T00:39:05;9.38;;;4.68;;
18146;SDS011;9199;48.832;9.182;2023-11-22T00:41:34;9.10;;;4.90;;
18146;SDS011;9199;48.832;9.182;2023-11-22T00:44:01;7.70;;;4.80;;
18146;SDS011;9199;48.832;9.182;2023-11-22T00:46:28;9.75;;;5.30;;
18146;SDS011;9199;48.832;9.182;2023-11-22T00:48:55;9.32;;;4.82;;
18146;SDS011;9199;48.832;9.182;2023-11-22T00:51:22;8.52;;;5.15;;
18146;SDS011;9199;48.832;9.182;2023-11-22T00:53:50;9.50;;;4.93;;
18146;SDS011;9199;48.832;9.182;2023-11-22T00:56:17;9.30;;;5.03;;
18146;SDS011;9199;48.832;9.182;2023-11-22T00:58:43;8.57;;;4.45;;
18146;SDS011;9199;48.832;9.182;2023-11-22T01:01:10;8.45;;;4.88;;
18146;SDS011;9199;48.832;9.182;2023-11-22T01:03:37;8.35;;;5.20;;
18146;SDS011;9199;48.832;9.182;2023-11-22T01:06:04;9.40;;;4.60;;
18146;SDS011;9199;48.832;9.182;2023-11-22T01:08:31;7.90;;;4.80;;
18146;SDS011;9199;48.832;9.182;2023-11-22T01:10:59;8.65;;;5.07;;
18146;SDS011;9199;48.832;9.182;2023-11-22T01:13:28;9.77;;;4.95;;
18146;SDS011;9199;48.832;9.182;2023-11-22T01:15:55;8.95;;;4.88;;
18146;SDS011;9199;48.832;9.182;2023-11-22T01:18:21;9.93;;;5.25;;
18146;SDS011;9199;48.832;9.182;2023-11-22T01:20:48;8.17;;;4.40;;
18146;SDS011;9199;48.832;9.182;2023-11-22T01:23:15;9.02;;;4.40;;
18146;SDS011;9199;48.832;9.182;2023-11-22T01:25:41;8.80;;;4.53;;
18146;SDS011;9199;48.832;9.182;2023-11-22T01:28:10;8.55;;;4.65;;
18146;SDS011;9199;48.832;9.182;2023-11-22T01:30:36;8.40;;;4.40;;
18146;SDS011;9199;48.832;9.182;2023-11-22T01:33:03;8.77;;;4.50;;
18146;SDS011;9199;48.832;9.182;2023-11-22T01:35:30;7.47;;;4.20;;
18146;SDS011;9199;48.832;9.182;2023-11-22T01:37:58;8.35;;;4.38;;
18146;SDS011;9199;48.832;9.182;2023-11-22T01:40:27;7.65;;;4.40;;
18146;SDS011;9199;48.832;9.182;2023-11-22T01:42:53;7.90;;;4.28;;
18146;SDS011;9199;48.832;9.182;2023-11-22T01:45:22;7.93;;;4.33;;
18146;SDS011;9199;48.832;9.182;2023-11-22T01:47:48;6.95;;;3.80;;
18146;SDS011;9199;48.832;9.182;2023-11-22T01:50:16;8.27;;;3.90;;
18146;SDS011;9199;48.832;9.182;2023-11-22T01:52:43;6.63;;;4.00;;
18146;SDS011;9199;48.832;9.182;2023-11-22T01:55:10;8.45;;;3.90;;
18146;SDS011;9199;48.832;9.182;2023-11-22T01:57:38;6.93;;;3.73;;
18146;SDS011;9199;48.832;9.182;2023-11-22T02:00:05;7.13;;;3.70;;
18146;SDS011;9199;48.832;9.182;2023-11-22T02:02:34;6.47;;;3.40;;
18146;SDS011;9199;48.832;9.182;2023-11-22T02:05:01;6.68;;;4.00;;
18146;SDS011;9199;48.832;9.182;2023-11-22T02:07:28;7.82;;;3.55;;
18146;SDS011;9199;48.832;9.182;2023-11-22T02:09:56;6.67;;;3.73;;
18146;SDS011;9199;48.832;9.182;2023-11-22T02:12:23;6.55;;;3.30;;
18146;SDS011;9199;48.832;9.182;2023-11-22T02:14:50;6.55;;;3.40;;
18146;SDS011;9199;48.832;9.182;2023-11-22T02:17:17;6.15;;;3.40;;
18146;SDS011;9199;48.832;9.182;2023-11-22T02:19:45;7.13;;;3.33;;
18146;SDS011;9199;48.832;9.182;2023-11-22T02:22:12;7.17;;;3.73;;
18146;SDS011;9199;48.832;9.182;2023-11-22T02:24:40;6.55;;;3.05;;
18146;SDS011;9199;48.832;9.182;2023-11-22T02:27:07;7.18;;;3.17;;
18146;SDS011;9199;48.832;9.182;2023-11-22T02:29:33;6.15;;;3.22;;
18146;SDS011;9199;48.832;9.182;2023-11-22T02:32:00;6.03;;;3.40;;
18146;SDS011;9199;48.832;9.182;2023-11-22T02:34:27;6.63;;;3.20;;
18146;SDS011;9199;48.832;9.182;2023-11-22T02:36:54;8.32;;;3.83;;
18146;SDS011;9199;48.832;9.182;2023-11-22T02:39:21;6.90;;;3.50;;
18146;SDS011;9199;48.832;9.182;2023-11-22T02:41:52;6.38;;;3.53;;
18146;SDS011;9199;48.832;9.182;2023-11-22T02:44:19;7.15;;;3.78;;
18146;SDS011;9199;48.832;9.182;2023-11-22T02:46:46;6.50;;;3.43;;
18146;SDS011;9199;48.832;9.182;2023-11-22T02:49:13;6.50;;;3.63;;
18146;SDS011;9199;48.832;9.182;2023-11-22T02:51:40;7.72;;;3.10;;
18146;SDS011;9199;48.832;9.182;2023-11-22T02:54:06;6.63;;;3.10;;
18146;SDS011;9199;48.832;9.182;2023-11-22T02:56:33;7.97;;;3.55;;
18146;SDS011;9199;48.832;9.182;2023-11-22T02:59:01;6.97;;;3.57;;
18146;SDS011;9199;48.832;9.182;2023-11-22T03:01:28;8.77;;;3.80;;
18146;SDS011;9199;48.832;9.182;2023-11-22T03:03:54;5.82;;;3.30;;
18146;SDS011;9199;48.832;9.182;2023-11-22T03:06:21;6.55;;;3.50;;
18146;SDS011;9199;48.832;9.182;2023-11-22T03:08:57;7.05;;;3.50;;
18146;SDS011;9199;48.832;9.182;2023-11-22T03:11:24;7.40;;;3.63;;
18146;SDS011;9199;48.832;9.182;2023-11-22T03:13:50;7.10;;;3.45;;
18146;SDS011;9199;48.832;9.182;2023-11-22T03:16:19;6.75;;;3.47;;
18146;SDS011;9199;48.832;9.182;2023-11-22T03:18:45;7.60;;;3.75;;
18146;SDS011;9199;48.832;9.182;2023-11-22T03:21:16;6.68;;;3.60;;
18146;SDS011;9199;48.832;9.182;2023-11-22T03:23:43;5.80;;;3.40;;
18146;SDS011;9199;48.832;9.182;2023-11-22T03:26:10;8.48;;;3.80;;
18146;SDS011;9199;48.832;9.182;2023-11-22T03:28:38;8.15;;;3.72;;
18146;SDS011;9199;48.832;9.182;2023-11-22T03:31:05;8.48;;;4.15;;
18146;SDS011;9199;48.832;9.182;2023-11-22T03:33:34;7.35;;;3.63;;
18146;SDS011;9199;48.832;9.182;2023-11-22T03:36:01;6.73;;;3.33;;
18146;SDS011;9199;48.832;9.182;2023-11-22T03:38:28;7.30;;;3.92;;
18146;SDS011;9199;48.832;9.182;2023-11-22T03:40:57;7.00;;;4.18;;
18146;SDS011;9199;48.832;9.182;2023-11-22T03:43:24;7.72;;;3.72;;
18146;SDS011;9199;48.832;9.182;2023-11-22T03:45:50;7.40;;;3.72;;
18146;SDS011;9199;48.832;9.182;2023-11-22T03:48:17;8.33;;;4.20;;
18146;SDS011;9199;48.832;9.182;2023-11-22T03:50:46;8.38;;;4.38;;
18146;SDS011;9199;48.832;9.182;2023-11-22T03:53:13;7.25;;;4.10;;
18146;SDS011;9199;48.832;9.182;2023-11-22T03:55:39;7.38;;;3.88;;
18146;SDS011;9199;48.832;9.182;2023-11-22T03:58:06;8.57;;;4.30;;
18146;SDS011;9199;48.832;9.182;2023-11-22T04:00:33;9.00;;;4.00;;
18146;SDS011;9199;48.832;9.182;2023-11-22T04:03:01;7.72;;;4.07;;
18146;SDS011;9199;48.832;9.182;2023-11-22T04:05:28;6.60;;;3.60;;
18146;SDS011;9199;48.832;9.182;2023-11-22T04:07:56;7.88;;;4.30;;
18146;SDS011;9199;48.832;9.182;2023-11-22T04:10:23;7.18;;;3.78;;
18146;SDS011;9199;48.832;9.182;2023-11-22T04:12:50;8.70;;;4.03;;
18146;SDS011;9199;48.832;9.182;2023-11-22T04:15:16;7.30;;;3.95;;
18146;SDS011;9199;48.832;9.182;2023-11-22T04:17:43;6.88;;;3.85;;
18146;SDS011;9199;48.832;9.182;2023-11-22T04:20:10;7.97;;;4.13;;
18146;SDS011;9199;48.832;9.182;2023-11-22T04:22:39;7.57;;;4.05;;
18146;SDS011;9199;48.832;9.182;2023-11-22T04:25:08;7.60;;;4.00;;
18146;SDS011;9199;48.832;9.182;2023-11-22T04:27:34;7.45;;;3.88;;
18146;SDS011;9199;48.832;9.182;2023-11-22T04:30:02;7.95;;;3.92;;
18146;SDS011;9199;48.832;9.182;2023-11-22T04:32:29;7.57;;;3.97;;
18146;SDS011;9199;48.832;9.182;2023-11-22T04:34:55;7.03;;;3.83;;
18146;SDS011;9199;48.832;9.182;2023-11-22T04:37:23;7.80;;;3.90;;
18146;SDS011;9199;48.832;9.182;2023-11-22T04:39:51;7.03;;;3.90;;
18146;SDS011;9199;48.832;9.182;2023-11-22T04:42:19;6.60;;;3.45;;
18146;SDS011;9199;48.832;9.182;2023-11-22T04:44:46;7.40;;;3.92;;
18146;SDS011;9199;48.832;9.182;2023-11-22T04:47:13;6.60;;;3.95;;
18146;SDS011;9199;48.832;9.182;2023-11-22T04:49:39;8.37;;;3.93;;
18146;SDS011;9199;48.832;9.182;2023-11-22T04:52:06;7.43;;;3.67;;
18146;SDS011;9199;48.832;9.182;2023-11-22T04:54:33;5.95;;;3.10;;
18146;SDS011;9199;48.832;9.182;2023-11-22T04:57:00;5.95;;;3.00;;
18146;SDS011;9199;48.832;9.182;2023-11-22T04:59:28;6.35;;;3.63;;
18146;SDS011;9199;48.832;9.182;2023-11-22T05:01:54;6.40;;;3.20;;
18146;SDS011;9199;48.832;9.182;2023-11-22T05:04:22;7.40;;;3.65;;
18146;SDS011;9199;48.832;9.182;2023-11-22T05:06:48;7.88;;;3.65;;
18146;SDS011;9199;48.832;9.182;2023-11-22T05:09:15;7.90;;;3.67;;
18146;SDS011;9199;48.832;9.182;2023-11-22T05:11:43;6.03;;;3.38;;
18146;SDS011;9199;48.832;9.182;2023-11-22T05:14:10;9.17;;;3.63;;
18146;SDS011;9199;48.832;9.182;2023-11-22T05:16:38;6.72;;;3.70;;
18146;SDS011;9199;48.832;9.182;2023-11-22T05:19:05;7.40;;;3.65;;
18146;SDS011;9199;48.832;9.182;2023-11-22T05:21:32;7.40;;;3.25;;
18146;SDS011;9199;48.832;9.182;2023-11-22T05:23:59;6.65;;;3.50;;
18146;SDS011;9199;48.832;9.182;2023-11-22T05:26:25;8.57;;;3.60;;
18146;SDS011;9199;48.832;9.182;2023-11-22T05:28:53;6.15;;;3.30;;
18146;SDS011;9199;48.832;9.182;2023-11-22T05:31:19;8.32;;;3.60;;
18146;SDS011;9199;48.832;9.182;2023-11-22T05:33:47;6.65;;;3.47;;
18146;SDS011;9199;48.832;9.182;2023-11-22T05:36:14;5.45;;;3.10;;
18146;SDS011;9199;48.832;9.182;2023-11-22T05:38:41;6.70;;;3.23;;
18146;SDS011;9199;48.832;9.182;2023-11-22T05:41:07;6.22;;;3.28;;
18146;SDS011;9199;48.832;9.182;2023-11-22T05:43:34;8.00;;;3.25;;
18146;SDS011;9199;48.832;9.182;2023-11-22T05:46:01;6.90;;;3.35;;
18146;SDS011;9199;48.832;9.182;2023-11-22T05:48:28;6.72;;;3.50;;
18146;SDS011;9199;48.832;9.182;2023-11-22T05:50:56;6.43;;;3.30;;
18146;SDS011;9199;48.832;9.182;2023-11-22T05:53:23;7.15;;;3.78;;
18146;SDS011;9199;48.832;9.182;2023-11-22T05:55:50;6.30;;;3.60;;
18146;SDS011;9199;48.832;9.182;2023-11-22T05:58:18;7.05;;;3.75;;
18146;SDS011;9199;48.832;9.182;2023-11-22T06:00:44;7.20;;;3.55;;
18146;SDS011;9199;48.832;9.182;2023-11-22T06:03:12;7.63;;;3.90;;
18146;SDS011;9199;48.832;9.182;2023-11-22T06:05:39;7.30;;;3.67;;
18146;SDS011;9199;48.832;9.182;2023-11-22T06:08:07;5.97;;;2.75;;
18146;SDS011;9199;48.832;9.182;2023-11-22T06:10:35;8.38;;;2.60;;
18146;SDS011;9199;48.832;9.182;2023-11-22T06:13:03;7.80;;;2.90;;
18146;SDS011;9199;48.832;9.182;2023-11-22T06:15:30;6.70;;;3.10;;
18146;SDS011;9199;48.832;9.182;2023-11-22T06:17:56;6.20;;;2.83;;
18146;SDS011;9199;48.832;9.182;2023-11-22T06:20:23;6.50;;;2.88;;
18146;SDS011;9199;48.832;9.182;2023-11-22T06:22:52;6.05;;;3.03;;
18146;SDS011;9199;48.832;9.182;2023-11-22T06:25:20;5.75;;;2.88;;
18146;SDS011;9199;48.832;9.182;2023-11-22T06:27:46;6.00;;;2.53;;
18146;SDS011;9199;48.832;9.182;2023-11-22T06:30:13;5.50;;;2.88;;
18146;SDS011;9199;48.832;9.182;2023-11-22T06:32:40;5.47;;;2.90;;
18146;SDS011;9199;48.832;9.182;2023-11-22T06:35:08;5.25;;;2.58;;
18146;SDS011;9199;48.832;9.182;2023-11-22T06:37:36;5.90;;;2.97;;
18146;SDS011;9199;48.832;9.182;2023-11-22T06:40:04;5.03;;;2.57;;
18146;SDS011;9199;48.832;9.182;2023-11-22T06:42:32;6.03;;;3.10;;
18146;SDS011;9199;48.832;9.182;2023-11-22T06:44:59;7.97;;;3.72;;
18146;SDS011;9199;48.832;9.182;2023-11-22T06:47:27;8.57;;;3.42;;
18146;SDS011;9199;48.832;9.182;2023-11-22T06:49:54;5.75;;;3.00;;
18146;SDS011;9199;48.832;9.182;2023-11-22T06:52:21;6.27;;;3.03;;
18146;SDS011;9199;48.832;9.182;2023-11-22T06:54:47;6.28;;;3.70;;
18146;SDS011;9199;48.832;9.182;2023-11-22T06:57:14;7.40;;;3.67;;
18146;SDS011;9199;48.832;9.182;2023-11-22T06:59:42;6.07;;;3.40;;
18146;SDS011;9199;48.832;9.182;2023-11-22T07:02:09;5.38;;;2.72;;
18146;SDS011;9199;48.832;9.182;2023-11-22T07:04:36;5.20;;;2.33;;
18146;SDS011;9199;48.832;9.182;2023-11-22T07:07:04;4.90;;;2.20;;
18146;SDS011;9199;48.832;9.182;2023-11-22T07:09:31;5.05;;;2.58;;
18146;SDS011;9199;48.832;9.182;2023-11-22T07:11:58;8.02;;;2.85;;
18146;SDS011;9199;48.832;9.182;2023-11-22T07:14:24;7.40;;;2.70;;
18146;SDS011;9199;48.832;9.182;2023-11-22T07:16:53;5.07;;;2.40;;
18146;SDS011;9199;48.832;9.182;2023-11-22T07:19:20;6.72;;;2.47;;
18146;SDS011;9199;48.832;9.182;2023-11-22T07:21:48;5.18;;;2.38;;
18146;SDS011;9199;48.832;9.182;2023-11-22T07:24:15;6.30;;;2.47;;
18146;SDS011;9199;48.832;9.182;2023-11-22T07:26:43;8.30;;;2.70;;
18146;SDS011;9199;48.832;9.182;2023-11-22T07:29:10;5.37;;;2.60;;
18146;SDS011;9199;48.832;9.182;2023-11-22T07:31:37;6.63;;;2.38;;
18146;SDS011;9199;48.832;9.182;2023-11-22T07:34:05;4.93;;;2.13;;
18146;SDS011;9199;48.832;9.182;2023-11-22T07:36:33;5.40;;;2.20;;
18146;SDS011;9199;48.832;9.182;2023-11-22T07:39:03;6.20;;;2.42;;
18146;SDS011;9199;48.832;9.182;2023-11-22T07:41:29;7.23;;;2.50;;
18146;SDS011;9199;48.832;9.182;2023-11-22T07:43:56;5.28;;;2.30;;
18146;SDS011;9199;48.832;9.182;2023-11-22T07:46:23;4.93;;;2.40;;
18146;SDS011;9199;48.832;9.182;2023-11-22T07:48:50;5.93;;;2.50;;
18146;SDS011;9199;48.832;9.182;2023-11-22T07:51:19;5.25;;;2.20;;
18146;SDS011;9199;48.832;9.182;2023-11-22T07:53:45;7.37;;;2.10;;
18146;SDS011;9199;48.832;9.182;2023-11-22T07:56:13;6.65;;;2.33;;
18146;SDS011;9199;48.832;9.182;2023-11-22T07:58:40;5.65;;;2.70;;
18146;SDS011;9199;48.832;9.182;2023-11-22T08:01:07;6.15;;;2.65;;
18146;SDS011;9199;48.832;9.182;2023-11-22T08:03:38;4.90;;;2.35;;
18146;SDS011;9199;48.832;9.182;2023-11-22T08:06:09;5.93;;;2.57;;
18146;SDS011;9199;48.832;9.182;2023-11-22T08:08:37;5.22;;;2.50;;
18146;SDS011;9199;48.832;9.182;2023-11-22T08:11:04;5.57;;;2.30;;
18146;SDS011;9199;48.832;9.182;2023-11-22T08:13:39;6.50;;;2.63;;
18146;SDS011;9199;48.832;9.182;2023-11-22T08:16:08;8.43;;;3.00;;
18146;SDS011;9199;48.832;9.182;2023-11-22T08:18:35;6.97;;;2.57;;
18146;SDS011;9199;48.832;9.182;2023-11-22T08:21:01;5.40;;;2.67;;
18146;SDS011;9199;48.832;9.182;2023-11-22T08:23:29;6.20;;;2.63;;
18146;SDS011;9199;48.832;9.182;2023-11-22T08:25:58;6.97;;;2.65;;
18146;SDS011;9199;48.832;9.182;2023-11-22T08:28:25;6.25;;;3.00;;
18146;SDS011;9199;48.832;9.182;2023-11-22T08:30:52;6.23;;;2.97;;
18146;SDS011;9199;48.832;9.182;2023-11-22T08:33:19;7.40;;;2.90;;
18146;SDS011;9199;48.832;9.182;2023-11-22T08:35:47;5.32;;;2.38;;
18146;SDS011;9199;48.832;9.182;2023-11-22T08:38:17;6.28;;;2.97;;
18146;SDS011;9199;48.832;9.182;2023-11-22T08:40:44;6.38;;;3.20;;
18146;SDS011;9199;48.832;9.182;2023-11-22T08:43:12;6.57;;;3.40;;
18146;SDS011;9199;48.832;9.182;2023-11-22T08:45:39;6.13;;;3.47;;
18146;SDS011;9199;48.832;9.182;2023-11-22T08:48:06;8.10;;;2.90;;
18146;SDS011;9199;48.832;9.182;2023-11-22T08:50:33;6.85;;;3.08;;
18146;SDS011;9199;48.832;9.182;2023-11-22T08:53:00;5.78;;;2.85;;
18146;SDS011;9199;48.832;9.182;2023-11-22T08:55:26;8.20;;;3.27;;
18146;SDS011;9199;48.832;9.182;2023-11-22T08:57:53;6.88;;;3.20;;
18146;SDS011;9199;48.832;9.182;2023-11-22T09:00:21;7.20;;;3.20;;
18146;SDS011;9199;48.832;9.182;2023-11-22T09:02:49;9.27;;;3.20;;
18146;SDS011;9199;48.832;9.182;2023-11-22T09:05:16;6.15;;;2.92;;
18146;SDS011;9199;48.832;9.182;2023-11-22T09:07:44;7.40;;;3.30;;
18146;SDS011;9199;48.832;9.182;2023-11-22T09:10:11;6.32;;;3.15;;
18146;SDS011;9199;48.832;9.182;2023-11-22T09:12:39;6.72;;;2.83;;
18146;SDS011;9199;48.832;9.182;2023-11-22T09:15:07;9.00;;;3.05;;
18146;SDS011;9199;48.832;9.182;2023-11-22T09:17:37;7.82;;;3.55;;
18146;SDS011;9199;48.832;9.182;2023-11-22T09:20:08;8.40;;;3.63;;
18146;SDS011;9199;48.832;9.182;2023-11-22T09:22:41;8.98;;;3.10;;
18146;SDS011;9199;48.832;9.182;2023-11-22T09:25:10;6.50;;;3.15;;
18146;SDS011;9199;48.832;9.182;2023-11-22T09:27:37;7.07;;;3.25;;
18146;SDS011;9199;48.832;9.182;2023-11-22T09:30:05;8.38;;;3.15;;
18146;SDS011;9199;48.832;9.182;2023-11-22T09:32:44;7.97;;;3.40;;
18146;SDS011;9199;48.832;9.182;2023-11-22T09:35:12;7.43;;;3.42;;
18146;SDS011;9199;48.832;9.182;2023-11-22T09:37:40;8.75;;;3.20;;
18146;SDS011;9199;48.832;9.182;2023-11-22T09:40:08;8.18;;;3.50;;
18146;SDS011;9199;48.832;9.182;2023-11-22T09:42:36;9.23;;;3.40;;
18146;SDS011;9199;48.832;9.182;2023-11-22T09:45:03;8.00;;;3.30;;
18146;SDS011;9199;48.832;9.182;2023-11-22T09:47:32;7.45;;;3.30;;
18146;SDS011;9199;48.832;9.182;2023-11-22T09:50:01;7.72;;;3.40;;
18146;SDS011;9199;48.832;9.182;2023-11-22T09:52:30;7.35;;;3.40;;
18146;SDS011;9199;48.832;9.182;2023-11-22T09:55:04;7.85;;;3.88;;
18146;SDS011;9199;48.832;9.182;2023-11-22T09:57:31;7.57;;;3.70;;
18146;SDS011;9199;48.832;9.182;2023-11-22T09:59:59;7.93;;;3.72;;
18146;SDS011;9199;48.832;9.182;2023-11-22T10:02:29;7.88;;;3.88;;
18146;SDS011;9199;48.832;9.182;2023-11-22T10:04:56;6.63;;;3.50;;
18146;SDS011;9199;48.832;9.182;2023-11-22T10:07:24;7.18;;;3.47;;
18146;SDS011;9199;48.832;9.182;2023-11-22T10:09:51;8.73;;;3.70;;
18146;SDS011;9199;48.832;9.182;2023-11-22T10:12:18;8.52;;;3.88;;
18146;SDS011;9199;48.832;9.182;2023-11-22T10:14:46;7.95;;;3.72;;
18146;SDS011;9199;48.832;9.182;2023-11-22T10:17:13;8.10;;;3.60;;
18146;SDS011;9199;48.832;9.182;2023-11-22T10:19:41;8.13;;;3.80;;
18146;SDS011;9199;48.832;9.182;2023-11-22T10:22:08;6.37;;;3.17;;
18146;SDS011;9199;48.832;9.182;2023-11-22T10:24:42;7.82;;;3.72;;
18146;SDS011;9199;48.832;9.182;2023-11-22T10:27:11;7.50;;;3.65;;
18146;SDS011;9199;48.832;9.182;2023-11-22T10:29:38;6.78;;;3.65;;
18146;SDS011;9199;48.832;9.182;2023-11-22T10:32:05;8.10;;;3.58;;
18146;SDS011;9199;48.832;9.182;2023-11-22T10:34:33;6.33;;;3.47;;
18146;SDS011;9199;48.832;9.182;2023-11-22T10:37:01;8.43;;;4.85;;
18146;SDS011;9199;48.832;9.182;2023-11-22T10:39:29;6.88;;;3.60;;
18146;SDS011;9199;48.832;9.182;2023-11-22T10:41:58;6.82;;;3.45;;
18146;SDS011;9199;48.832;9.182;2023-11-22T10:44:26;7.53;;;3.65;;
18146;SDS011;9199;48.832;9.182;2023-11-22T10:46:52;8.00;;;4.03;;
18146;SDS011;9199;48.832;9.182;2023-11-22T10:49:20;6.47;;;3.42;;
18146;SDS011;9199;48.832;9.182;2023-11-22T10:51:49;8.07;;;3.83;;
18146;SDS011;9199;48.832;9.182;2023-11-22T10:54:19;8.63;;;4.25;;
18146;SDS011;9199;48.832;9.182;2023-11-22T10:56:47;7.05;;;3.65;;
18146;SDS011;9199;48.832;9.182;2023-11-22T10:59:25;8.90;;;3.93;;
18146;SDS011;9199;48.832;9.182;2023-11-22T11:01:54;8.95;;;3.90;;
18146;SDS011;9199;48.832;9.182;2023-11-22T11:04:24;9.68;;;4.35;;
18146;SDS011;9199;48.832;9.182;2023-11-22T11:06:54;10.27;;;4.57;;
18146;SDS011;9199;48.832;9.182;2023-11-22T11:09:24;7.45;;;3.55;;
18146;SDS011;9199;48.832;9.182;2023-11-22T11:11:57;8.03;;;4.30;;
18146;SDS011;9199;48.832;9.182;2023-11-22T11:14:25;7.85;;;3.97;;
18146;SDS011;9199;48.832;9.182;2023-11-22T11:16:53;10.48;;;4.10;;
18146;SDS011;9199;48.832;9.182;2023-11-22T11:19:23;7.90;;;4.40;;
18146;SDS011;9199;48.832;9.182;2023-11-22T11:21:50;8.25;;;3.92;;
18146;SDS011;9199;48.832;9.182;2023-11-22T11:24:18;7.33;;;4.40;;
18146;SDS011;9199;48.832;9.182;2023-11-22T11:26:47;7.45;;;4.20;;
18146;SDS011;9199;48.832;9.182;2023-11-22T11:29:31;8.40;;;3.97;;
18146;SDS011;9199;48.832;9.182;2023-11-22T11:31:58;7.07;;;3.70;;
18146;SDS011;9199;48.832;9.182;2023-11-22T11:34:26;7.38;;;4.28;;
18146;SDS011;9199;48.832;9.182;2023-11-22T11:36:54;9.37;;;4.80;;
18146;SDS011;9199;48.832;9.182;2023-11-22T11:39:24;8.82;;;4.95;;
18146;SDS011;9199;48.832;9.182;2023-11-22T11:42:07;7.80;;;4.70;;
18146;SDS011;9199;48.832;9.182;2023-11-22T11:44:36;8.90;;;4.15;;
18146;SDS011;9199;48.832;9.182;2023-11-22T11:47:12;7.93;;;4.78;;
18146;SDS011;9199;48.832;9.182;2023-11-22T11:49:39;7.33;;;4.10;;
18146;SDS011;9199;48.832;9.182;2023-11-22T11:52:07;8.65;;;4.38;;
18146;SDS011;9199;48.832;9.182;2023-11-22T11:54:33;11.13;;;4.35;;
18146;SDS011;9199;48.832;9.182;2023-11-22T11:57:00;8.45;;;4.20;;
18146;SDS011;9199;48.832;9.182;2023-11-22T11:59:27;7.95;;;4.38;;
18146;SDS011;9199;48.832;9.182;2023-11-22T12:01:59;9.73;;;4.60;;
18146;SDS011;9199;48.832;9.182;2023-11-22T12:04:26;10.85;;;4.65;;
18146;SDS011;9199;48.832;9.182;2023-11-22T12:06:53;10.43;;;4.50;;
18146;SDS011;9199;48.832;9.182;2023-11-22T12:09:23;8.23;;;4.22;;
18146;SDS011;9199;48.832;9.182;2023-11-22T12:11:51;8.52;;;4.28;;
18146;SDS011;9199;48.832;9.182;2023-11-22T12:14:19;8.00;;;3.90;;
18146;SDS011;9199;48.832;9.182;2023-11-22T12:16:46;7.22;;;4.00;;
18146;SDS011;9199;48.832;9.182;2023-11-22T12:19:22;7.38;;;4.10;;
18146;SDS011;9199;48.832;9.182;2023-11-22T12:21:49;8.52;;;3.97;;
18146;SDS011;9199;48.832;9.182;2023-11-22T12:24:16;8.27;;;4.05;;
18146;SDS011;9199;48.832;9.182;2023-11-22T12:26:44;7.70;;;4.03;;
18146;SDS011;9199;48.832;9.182;2023-11-22T12:29:13;7.63;;;4.20;;
18146;SDS011;9199;48.832;9.182;2023-11-22T12:31:44;8.43;;;4.00;;
18146;SDS011;9199;48.832;9.182;2023-11-22T12:34:12;7.70;;;3.85;;
18146;SDS011;9199;48.832;9.182;2023-11-22T12:36:41;8.63;;;4.07;;
18146;SDS011;9199;48.832;9.182;2023-11-22T12:39:08;7.67;;;4.30;;
18146;SDS011;9199;48.832;9.182;2023-11-22T12:41:41;8.98;;;4.53;;
18146;SDS011;9199;48.832;9.182;2023-11-22T12:44:10;7.97;;;4.20;;
18146;SDS011;9199;48.832;9.182;2023-11-22T12:46:46;8.38;;;4.50;;
18146;SDS011;9199;48.832;9.182;2023-11-22T12:49:17;9.10;;;4.55;;
18146;SDS011;9199;48.832;9.182;2023-11-22T12:51:49;9.77;;;4.10;;
18146;SDS011;9199;48.832;9.182;2023-11-22T12:54:17;7.95;;;4.15;;
18146;SDS011;9199;48.832;9.182;2023-11-22T12:56:46;8.65;;;4.38;;
18146;SDS011;9199;48.832;9.182;2023-11-22T12:59:15;8.15;;;3.92;;
18146;SDS011;9199;48.832;9.182;2023-11-22T13:01:42;7.93;;;4.20;;
18146;SDS011;9199;48.832;9.182;2023-11-22T13:04:09;8.80;;;4.53;;
18146;SDS011;9199;48.832;9.182;2023-11-22T13:06:36;8.75;;;4.40;;
18146;SDS011;9199;48.832;9.182;2023-11-22T13:09:05;9.43;;;4.60;;
18146;SDS011;9199;48.832;9.182;2023-11-22T13:11:32;8.73;;;4.68;;
18146;SDS011;9199;48.832;9.182;2023-11-22T13:13:59;8.45;;;4.85;;
18146;SDS011;9199;48.832;9.182;2023-11-22T13:16:26;7.90;;;4.53;;
18146;SDS011;9199;48.832;9.182;2023-11-22T13:18:53;10.63;;;4.43;;
18146;SDS011;9199;48.832;9.182;2023-11-22T13:21:20;9.15;;;4.78;;
18146;SDS011;9199;48.832;9.182;2023-11-22T13:23:47;9.82;;;4.65;;
18146;SDS011;9199;48.832;9.182;2023-11-22T13:26:16;7.75;;;4.10;;
18146;SDS011;9199;48.832;9.182;2023-11-22T13:28:43;9.00;;;4.57;;
18146;SDS011;9199;48.832;9.182;2023-11-22T13:31:10;10.10;;;5.03;;
18146;SDS011;9199;48.832;9.182;2023-11-22T13:33:37;9.60;;;4.85;;
18146;SDS011;9199;48.832;9.182;2023-11-22T13:36:08;9.35;;;4.78;;
18146;SDS011;9199;48.832;9.182;2023-11-22T13:38:38;7.53;;;4.57;;
18146;SDS011;9199;48.832;9.182;2023-11-22T13:41:05;7.83;;;4.37;;
18146;SDS011;9199;48.832;9.182;2023-11-22T13:43:33;8.70;;;4.32;;
18146;SDS011;9199;48.832;9.182;2023-11-22T13:46:00;7.70;;;4.10;;
18146;SDS011;9199;48.832;9.182;2023-11-22T13:48:27;9.80;;;5.00;;
18146;SDS011;9199;48.832;9.182;2023-11-22T13:50:54;10.50;;;4.97;;
18146;SDS011;9199;48.832;9.182;2023-11-22T13:53:21;10.80;;;4.70;;
18146;SDS011;9199;48.832;9.182;2023-11-22T13:55:48;10.32;;;4.85;;
18146;SDS011;9199;48.832;9.182;2023-11-22T13:58:17;8.00;;;4.13;;
18146;SDS011;9199;48.832;9.182;2023-11-22T14:00:45;9.65;;;4.75;;
18146;SDS011;9199;48.832;9.182;2023-11-22T14:03:13;9.10;;;4.20;;
18146;SDS011;9199;48.832;9.182;2023-11-22T14:05:40;8.30;;;4.57;;
18146;SDS011;9199;48.832;9.182;2023-11-22T14:08:06;8.27;;;4.45;;
18146;SDS011;9199;48.832;9.182;2023-11-22T14:10:33;7.90;;;4.50;;
18146;SDS011;9199;48.832;9.182;2023-11-22T14:13:00;9.77;;;4.68;;
18146;SDS011;9199;48.832;9.182;2023-11-22T14:15:28;9.35;;;4.65;;
18146;SDS011;9199;48.832;9.182;2023-11-22T14:17:57;10.67;;;4.60;;
18146;SDS011;9199;48.832;9.182;2023-11-22T14:20:23;8.93;;;5.20;;
18146;SDS011;9199;48.832;9.182;2023-11-22T14:22:50;8.60;;;4.78;;
18146;SDS011;9199;48.832;9.182;2023-11-22T14:25:18;11.02;;;4.82;;
18146;SDS011;9199;48.832;9.182;2023-11-22T14:27:45;9.60;;;5.10;;
18146;SDS011;9199;48.832;9.182;2023-11-22T14:30:13;9.60;;;4.70;;
18146;SDS011;9199;48.832;9.182;2023-11-22T14:32:42;9.02;;;4.80;;
18146;SDS011;9199;48.832;9.182;2023-11-22T14:35:10;8.93;;;4.50;;
18146;SDS011;9199;48.832;9.182;2023-11-22T14:37:37;8.98;;;5.35;;
18146;SDS011;9199;48.832;9.182;2023-11-22T14:40:05;9.15;;;4.57;;
18146;SDS011;9199;48.832;9.182;2023-11-22T14:42:38;10.20;;;4.57;;
18146;SDS011;9199;48.832;9.182;2023-11-22T14:45:06;9.88;;;4.93;;
18146;SDS011;9199;48.832;9.182;2023-11-22T14:47:33;9.68;;;4.60;;
18146;SDS011;9199;48.832;9.182;2023-11-22T14:50:01;8.30;;;4.85;;
18146;SDS011;9199;48.832;9.182;2023-11-22T14:52:31;8.95;;;4.80;;
18146;SDS011;9199;48.832;9.182;2023-11-22T14:54:59;11.23;;;4.53;;
18146;SDS011;9199;48.832;9.182;2023-11-22T14:57:26;11.60;;;5.35;;
18146;SDS011;9199;48.832;9.182;2023-11-22T14:59:54;9.20;;;5.15;;
18146;SDS011;9199;48.832;9.182;2023-11-22T15:02:21;9.75;;;5.10;;
18146;SDS011;9199;48.832;9.182;2023-11-22T15:04:49;9.45;;;5.03;;